sensor_id;sensor_type;location;lat;lon;timestamp;pressure;altitude;pressure_sealevel;temperature;humidity
63663;BME280;49815;51.618;0.336;2022-07-29T00:01:24;101126.65;;;12.07;54.28
63663;BME280;49815;51.618;0.336;2022-07-29T00:03:49;101125.82;;;11.88;54.69
63663;BME280;49815;51.618;0.336;2022-07-29T00:06:15;101124.05;;;12.69;53.65
63663;BME280;49815;51.618;0.336;2022-07-29T00:08:40;101118.87;;;13.91;51.38
63663;BME280;49815;51.618;0.336;2022-07-29T00:11:06;101121.92;;;11.83;54.02
63663;BME280;49815;51.618;0.336;2022-07-29T00:13:31;101117.94;;;14.88;48.56
63663;BME280;49815;51.618;0.336;2022-07-29T00:15:56;101113.79;;;12.52;53.42
63663;BME280;49815;51.618;0.336;2022-07-29T00:18:21;101108.05;;;13.29;51.18
63663;BME280;49815;51.618;0.336;2022-07-29T00:20:47;101103.30;;;15.20;47.83
63663;BME280;49815;51.618;0.336;2022-07-29T00:23:12;101106.01;;;14.32;50.04
63663;BME280;49815;51.618;0.336;2022-07-29T00:25:38;101100.24;;;15.69;46.96
63663;BME280;49815;51.618;0.336;2022-07-29T00:28:04;101104.45;;;13.74;49.56
63663;BME280;49815;51.618;0.336;2022-07-29T00:30:28;101103.24;;;15.69;46.89
63663;BME280;49815;51.618;0.336;2022-07-29T00:32:54;101105.38;;;14.85;48.19
63663;BME280;49815;51.618;0.336;2022-07-29T00:35:20;101103.70;;;15.73;45.73
63663;BME280;49815;51.618;0.336;2022-07-29T00:37:45;101103.88;;;15.12;46.66
63663;BME280;49815;51.618;0.336;2022-07-29T00:40:10;101104.79;;;13.99;48.64
63663;BME280;49815;51.618;0.336;2022-07-29T00:42:41;101098.65;;;15.88;45.29
63663;BME280;49815;51.618;0.336;2022-07-29T00:45:00;101097.58;;;15.97;44.18
63663;BME280;49815;51.618;0.336;2022-07-29T00:47:26;101095.69;;;16.14;45.20
63663;BME280;49815;51.618;0.336;2022-07-29T00:49:51;101090.18;;;15.75;46.51
63663;BME280;49815;51.618;0.336;2022-07-29T00:52:17;101087.40;;;16.73;44.16
63663;BME280;49815;51.618;0.336;2022-07-29T00:54:42;101088.36;;;16.32;44.14
63663;BME280;49815;51.618;0.336;2022-07-29T00:57:07;101085.78;;;16.99;43.34
63663;BME280;49815;51.618;0.336;2022-07-29T00:59:33;101085.80;;;16.53;43.93
63663;BME280;49815;51.618;0.336;2022-07-29T01:01:58;101091.93;;;14.44;47.32
63663;BME280;49815;51.618;0.336;2022-07-29T01:04:23;101083.98;;;16.17;45.01
63663;BME280;49815;51.618;0.336;2022-07-29T01:06:50;101082.01;;;15.82;45.23
63663;BME280;49815;51.618;0.336;2022-07-29T01:09:15;101084.26;;;13.87;49.96
63663;BME280;49815;51.618;0.336;2022-07-29T01:11:40;101083.92;;;13.80;49.87
63663;BME280;49815;51.618;0.336;2022-07-29T01:14:07;101083.04;;;14.40;47.72
63663;BME280;49815;51.618;0.336;2022-07-29T01:16:32;101075.33;;;15.51;46.87
63663;BME280;49815;51.618;0.336;2022-07-29T01:19:03;101076.58;;;16.17;45.69
63663;BME280;49815;51.618;0.336;2022-07-29T01:21:36;101080.20;;;13.39;51.88
63663;BME280;49815;51.618;0.336;2022-07-29T01:23:57;101079.45;;;13.99;49.63
63663;BME280;49815;51.618;0.336;2022-07-29T01:26:23;101078.25;;;13.35;51.53
63663;BME280;49815;51.618;0.336;2022-07-29T01:28:51;101077.48;;;14.75;49.14
63663;BME280;49815;51.618;0.336;2022-07-29T01:31:05;101069.79;;;16.57;45.39
63663;BME280;49815;51.618;0.336;2022-07-29T01:33:29;101075.98;;;13.14;51.48
63663;BME280;49815;51.618;0.336;2022-07-29T01:35:53;101074.68;;;13.64;51.22
63663;BME280;49815;51.618;0.336;2022-07-29T01:38:21;101077.26;;;14.34;49.18
63663;BME280;49815;51.618;0.336;2022-07-29T01:40:47;101077.95;;;14.84;48.79
63663;BME280;49815;51.618;0.336;2022-07-29T01:43:12;101074.88;;;14.90;48.29
63663;BME280;49815;51.618;0.336;2022-07-29T01:45:40;101074.94;;;12.39;52.04
63663;BME280;49815;51.618;0.336;2022-07-29T01:48:03;101080.18;;;14.07;51.38
63663;BME280;49815;51.618;0.336;2022-07-29T01:50:31;101078.09;;;12.35;54.67
63663;BME280;49815;51.618;0.336;2022-07-29T01:52:56;101079.59;;;11.56;56.02
63663;BME280;49815;51.618;0.336;2022-07-29T01:55:17;101065.04;;;15.65;47.83
63663;BME280;49815;51.618;0.336;2022-07-29T01:57:44;101072.46;;;12.77;53.73
63663;BME280;49815;51.618;0.336;2022-07-29T02:00:08;101071.86;;;15.10;48.73
63663;BME280;49815;51.618;0.336;2022-07-29T02:02:35;101076.00;;;13.47;52.15
63663;BME280;49815;51.618;0.336;2022-07-29T02:04:59;101077.77;;;13.44;51.68
63663;BME280;49815;51.618;0.336;2022-07-29T02:07:25;101076.99;;;14.16;50.67
63663;BME280;49815;51.618;0.336;2022-07-29T02:09:50;101075.40;;;14.28;49.39
63663;BME280;49815;51.618;0.336;2022-07-29T02:12:15;101075.16;;;13.82;50.22
63663;BME280;49815;51.618;0.336;2022-07-29T02:14:44;101066.53;;;15.68;47.76
63663;BME280;49815;51.618;0.336;2022-07-29T02:17:06;101067.67;;;16.18;45.63
63663;BME280;49815;51.618;0.336;2022-07-29T02:19:32;101066.26;;;15.17;47.07
63663;BME280;49815;51.618;0.336;2022-07-29T02:21:57;101066.88;;;15.81;46.47
63663;BME280;49815;51.618;0.336;2022-07-29T02:24:23;101068.59;;;16.14;45.03
63663;BME280;49815;51.618;0.336;2022-07-29T02:26:48;101070.19;;;15.10;47.73
63663;BME280;49815;51.618;0.336;2022-07-29T02:29:12;101070.11;;;15.71;46.74
63663;BME280;49815;51.618;0.336;2022-07-29T02:31:37;101072.29;;;14.68;47.93
63663;BME280;49815;51.618;0.336;2022-07-29T02:34:06;101074.02;;;13.07;52.04
63663;BME280;49815;51.618;0.336;2022-07-29T02:36:28;101071.38;;;15.34;48.51
63663;BME280;49815;51.618;0.336;2022-07-29T02:38:53;101073.24;;;13.69;50.49
63663;BME280;49815;51.618;0.336;2022-07-29T02:41:23;101067.16;;;15.70;46.87
63663;BME280;49815;51.618;0.336;2022-07-29T02:43:44;101075.48;;;14.78;47.87
63663;BME280;49815;51.618;0.336;2022-07-29T02:46:13;101070.45;;;16.30;45.84
63663;BME280;49815;51.618;0.336;2022-07-29T02:48:37;101079.15;;;12.81;52.46
63663;BME280;49815;51.618;0.336;2022-07-29T02:51:05;101081.54;;;13.17;54.48
63663;BME280;49815;51.618;0.336;2022-07-29T02:53:26;101079.10;;;12.01;55.69
63663;BME280;49815;51.618;0.336;2022-07-29T02:55:55;101076.85;;;10.35;60.63
63663;BME280;49815;51.618;0.336;2022-07-29T02:58:22;101073.23;;;11.25;58.78
63663;BME280;49815;51.618;0.336;2022-07-29T03:00:41;101080.22;;;10.39;61.65
63663;BME280;49815;51.618;0.336;2022-07-29T03:03:09;101073.52;;;10.90;60.88
63663;BME280;49815;51.618;0.336;2022-07-29T03:05:32;101076.70;;;10.88;61.57
63663;BME280;49815;51.618;0.336;2022-07-29T03:08:00;101066.79;;;13.31;54.76
63663;BME280;49815;51.618;0.336;2022-07-29T03:10:23;101074.92;;;12.84;54.80
63663;BME280;49815;51.618;0.336;2022-07-29T03:12:48;101079.69;;;11.57;58.12
63663;BME280;49815;51.618;0.336;2022-07-29T03:15:13;101077.86;;;10.95;60.17
63663;BME280;49815;51.618;0.336;2022-07-29T03:17:39;101074.94;;;12.04;57.59
63663;BME280;49815;51.618;0.336;2022-07-29T03:20:06;101073.11;;;12.28;57.25
63663;BME280;49815;51.618;0.336;2022-07-29T03:22:29;101073.34;;;10.90;60.93
63663;BME280;49815;51.618;0.336;2022-07-29T03:24:54;101072.48;;;12.02;57.76
63663;BME280;49815;51.618;0.336;2022-07-29T03:27:20;101072.24;;;11.31;58.53
63663;BME280;49815;51.618;0.336;2022-07-29T03:29:45;101069.35;;;14.14;52.64
63663;BME280;49815;51.618;0.336;2022-07-29T03:32:10;101071.64;;;13.65;53.52
63663;BME280;49815;51.618;0.336;2022-07-29T03:34:36;101071.96;;;14.80;49.81
63663;BME280;49815;51.618;0.336;2022-07-29T03:37:01;101077.19;;;14.56;50.36
63663;BME280;49815;51.618;0.336;2022-07-29T03:39:30;101077.95;;;12.87;53.60
63663;BME280;49815;51.618;0.336;2022-07-29T03:41:54;101077.64;;;15.00;49.38
63663;BME280;49815;51.618;0.336;2022-07-29T03:44:18;101079.33;;;15.26;48.92
63663;BME280;49815;51.618;0.336;2022-07-29T03:46:43;101082.83;;;15.71;47.63
63663;BME280;49815;51.618;0.336;2022-07-29T03:49:08;101088.35;;;16.03;46.29
63663;BME280;49815;51.618;0.336;2022-07-29T03:51:34;101089.91;;;16.35;46.64
63663;BME280;49815;51.618;0.336;2022-07-29T03:53:58;101098.24;;;13.98;49.85
63663;BME280;49815;51.618;0.336;2022-07-29T03:56:24;101095.89;;;12.84;53.26
63663;BME280;49815;51.618;0.336;2022-07-29T03:58:50;101099.61;;;13.00;53.09
63663;BME280;49815;51.618;0.336;2022-07-29T04:01:15;101098.92;;;11.98;56.68
63663;BME280;49815;51.618;0.336;2022-07-29T04:03:40;101098.44;;;11.65;58.20
63663;BME280;49815;51.618;0.336;2022-07-29T04:06:06;101091.35;;;12.51;56.21
63663;BME280;49815;51.618;0.336;2022-07-29T04:08:31;101087.35;;;14.87;51.67
63663;BME280;49815;51.618;0.336;2022-07-29T04:10:56;101086.03;;;12.71;55.67
63663;BME280;49815;51.618;0.336;2022-07-29T04:13:22;101079.60;;;15.08;50.86
63663;BME280;49815;51.618;0.336;2022-07-29T04:15:47;101077.74;;;13.07;54.32
63663;BME280;49815;51.618;0.336;2022-07-29T04:18:12;101085.63;;;11.53;58.36
63663;BME280;49815;51.618;0.336;2022-07-29T04:20:37;101086.90;;;10.58;62.24
63663;BME280;49815;51.618;0.336;2022-07-29T04:23:03;101083.71;;;10.95;62.55
63663;BME280;49815;51.618;0.336;2022-07-29T04:25:28;101081.66;;;10.59;62.93
63663;BME280;49815;51.618;0.336;2022-07-29T04:27:54;101082.27;;;11.55;60.36
63663;BME280;49815;51.618;0.336;2022-07-29T04:30:19;101084.36;;;11.53;60.22
63663;BME280;49815;51.618;0.336;2022-07-29T04:32:45;101086.23;;;11.42;61.62
63663;BME280;49815;51.618;0.336;2022-07-29T04:35:10;101085.81;;;11.01;62.37
63663;BME280;49815;51.618;0.336;2022-07-29T04:37:35;101091.78;;;10.37;63.51
63663;BME280;49815;51.618;0.336;2022-07-29T04:40:01;101085.17;;;12.12;59.89
63663;BME280;49815;51.618;0.336;2022-07-29T04:42:26;101088.43;;;10.62;63.26
63663;BME280;49815;51.618;0.336;2022-07-29T04:44:51;101084.16;;;11.59;60.34
63663;BME280;49815;51.618;0.336;2022-07-29T04:47:17;101089.95;;;10.67;63.76
63663;BME280;49815;51.618;0.336;2022-07-29T04:49:42;101087.91;;;10.29;65.18
63663;BME280;49815;51.618;0.336;2022-07-29T04:52:07;101084.92;;;11.27;63.99
63663;BME280;49815;51.618;0.336;2022-07-29T04:54:34;101082.72;;;11.62;61.76
63663;BME280;49815;51.618;0.336;2022-07-29T04:56:58;101091.95;;;10.16;67.16
63663;BME280;49815;51.618;0.336;2022-07-29T04:59:23;101098.24;;;9.93;67.40
63663;BME280;49815;51.618;0.336;2022-07-29T05:01:50;101100.23;;;10.69;64.49
63663;BME280;49815;51.618;0.336;2022-07-29T05:04:15;101098.83;;;11.44;62.11
63663;BME280;49815;51.618;0.336;2022-07-29T05:06:40;101106.98;;;11.36;60.70
63663;BME280;49815;51.618;0.336;2022-07-29T05:09:05;101113.33;;;10.27;63.89
63663;BME280;49815;51.618;0.336;2022-07-29T05:11:31;101113.64;;;10.71;64.83
63663;BME280;49815;51.618;0.336;2022-07-29T05:13:56;101113.93;;;10.25;65.40
63663;BME280;49815;51.618;0.336;2022-07-29T05:16:21;101115.37;;;10.17;66.45
63663;BME280;49815;51.618;0.336;2022-07-29T05:18:46;101119.04;;;10.19;65.75
63663;BME280;49815;51.618;0.336;2022-07-29T05:21:12;101117.69;;;9.92;67.93
63663;BME280;49815;51.618;0.336;2022-07-29T05:23:37;101116.20;;;9.55;68.97
63663;BME280;49815;51.618;0.336;2022-07-29T05:26:03;101109.99;;;11.02;64.99
63663;BME280;49815;51.618;0.336;2022-07-29T05:28:28;101107.26;;;10.48;65.96
63663;BME280;49815;51.618;0.336;2022-07-29T05:30:53;101096.08;;;13.68;57.53
63663;BME280;49815;51.618;0.336;2022-07-29T05:33:19;101107.63;;;12.06;59.92
63663;BME280;49815;51.618;0.336;2022-07-29T05:35:44;101116.30;;;11.32;63.29
63663;BME280;49815;51.618;0.336;2022-07-29T05:38:10;101111.04;;;12.39;60.13
63663;BME280;49815;51.618;0.336;2022-07-29T05:40:35;101110.18;;;11.73;61.54
63663;BME280;49815;51.618;0.336;2022-07-29T05:43:00;101109.03;;;11.91;62.44
63663;BME280;49815;51.618;0.336;2022-07-29T05:45:26;101107.34;;;12.62;59.97
63663;BME280;49815;51.618;0.336;2022-07-29T05:47:51;101110.33;;;13.00;58.09
63663;BME280;49815;51.618;0.336;2022-07-29T05:50:17;101114.42;;;13.08;58.13
63663;BME280;49815;51.618;0.336;2022-07-29T05:52:42;101117.55;;;14.34;55.79
63663;BME280;49815;51.618;0.336;2022-07-29T05:55:08;101116.05;;;14.14;54.84
63663;BME280;49815;51.618;0.336;2022-07-29T05:57:33;101115.76;;;11.89;61.00
63663;BME280;49815;51.618;0.336;2022-07-29T05:59:58;101114.43;;;14.12;55.61
63663;BME280;49815;51.618;0.336;2022-07-29T06:02:23;101109.98;;;13.24;57.77
63663;BME280;49815;51.618;0.336;2022-07-29T06:04:50;101112.53;;;13.31;58.01
63663;BME280;49815;51.618;0.336;2022-07-29T06:07:14;101113.23;;;13.84;55.57
63663;BME280;49815;51.618;0.336;2022-07-29T06:09:40;101110.68;;;15.29;53.14
63663;BME280;49815;51.618;0.336;2022-07-29T06:12:06;101114.98;;;13.36;56.64
63663;BME280;49815;51.618;0.336;2022-07-29T06:14:31;101115.07;;;13.20;57.97
63663;BME280;49815;51.618;0.336;2022-07-29T06:16:56;101119.58;;;13.02;59.07
63663;BME280;49815;51.618;0.336;2022-07-29T06:19:22;101119.80;;;13.53;58.20
63663;BME280;49815;51.618;0.336;2022-07-29T06:21:47;101124.36;;;14.82;55.48
63663;BME280;49815;51.618;0.336;2022-07-29T06:24:13;101122.31;;;14.45;56.76
63663;BME280;49815;51.618;0.336;2022-07-29T06:26:38;101124.88;;;14.10;56.72
63663;BME280;49815;51.618;0.336;2022-07-29T06:29:03;101125.13;;;13.80;58.20
63663;BME280;49815;51.618;0.336;2022-07-29T06:31:28;101127.15;;;14.67;56.37
63663;BME280;49815;51.618;0.336;2022-07-29T06:33:53;101120.97;;;14.06;58.08
63663;BME280;49815;51.618;0.336;2022-07-29T06:36:19;101116.07;;;16.94;51.04
63663;BME280;49815;51.618;0.336;2022-07-29T06:38:44;101125.88;;;15.10;55.93
63663;BME280;49815;51.618;0.336;2022-07-29T06:41:10;101117.50;;;15.89;53.00
63663;BME280;49815;51.618;0.336;2022-07-29T06:43:36;101128.54;;;14.75;56.37
63663;BME280;49815;51.618;0.336;2022-07-29T06:46:00;101130.01;;;15.57;56.77
63663;BME280;49815;51.618;0.336;2022-07-29T06:48:25;101118.49;;;17.43;52.42
63663;BME280;49815;51.618;0.336;2022-07-29T06:50:50;101127.20;;;15.56;53.82
63663;BME280;49815;51.618;0.336;2022-07-29T06:53:16;101122.67;;;18.35;49.85
63663;BME280;49815;51.618;0.336;2022-07-29T06:55:41;101124.46;;;16.65;50.33
63663;BME280;49815;51.618;0.336;2022-07-29T06:58:06;101115.40;;;20.87;43.21
63663;BME280;49815;51.618;0.336;2022-07-29T07:00:31;101112.37;;;22.05;40.93
63663;BME280;49815;51.618;0.336;2022-07-29T07:02:56;101108.52;;;23.95;36.05
63663;BME280;49815;51.618;0.336;2022-07-29T07:05:21;101112.43;;;20.39;39.89
63663;BME280;49815;51.618;0.336;2022-07-29T07:07:46;101117.04;;;22.84;37.46
63663;BME280;49815;51.618;0.336;2022-07-29T07:10:11;101119.85;;;20.65;41.95
63663;BME280;49815;51.618;0.336;2022-07-29T07:12:36;101118.04;;;22.17;39.47
63663;BME280;49815;51.618;0.336;2022-07-29T07:15:02;101123.85;;;21.80;38.90
63663;BME280;49815;51.618;0.336;2022-07-29T07:17:27;101120.90;;;21.71;39.19
63663;BME280;49815;51.618;0.336;2022-07-29T07:19:52;101135.61;;;19.27;43.48
63663;BME280;49815;51.618;0.336;2022-07-29T07:22:17;101124.44;;;22.98;37.64
63663;BME280;49815;51.618;0.336;2022-07-29T07:24:42;101121.97;;;25.09;34.77
63663;BME280;49815;51.618;0.336;2022-07-29T07:27:07;101133.59;;;24.75;33.49
63663;BME280;49815;51.618;0.336;2022-07-29T07:29:32;101137.67;;;22.69;35.62
63663;BME280;49815;51.618;0.336;2022-07-29T07:31:57;101122.35;;;27.57;29.81
63663;BME280;49815;51.618;0.336;2022-07-29T07:34:23;101127.95;;;24.30;33.45
63663;BME280;49815;51.618;0.336;2022-07-29T07:36:49;101130.03;;;23.59;34.75
63663;BME280;49815;51.618;0.336;2022-07-29T07:39:13;101129.66;;;22.12;37.29
63663;BME280;49815;51.618;0.336;2022-07-29T07:41:38;101129.77;;;22.78;36.95
63663;BME280;49815;51.618;0.336;2022-07-29T07:44:04;101132.14;;;20.37;39.73
63663;BME280;49815;51.618;0.336;2022-07-29T07:46:29;101135.00;;;21.29;38.66
63663;BME280;49815;51.618;0.336;2022-07-29T07:48:53;101129.14;;;20.61;39.47
63663;BME280;49815;51.618;0.336;2022-07-29T07:51:19;101137.83;;;19.29;42.15
63663;BME280;49815;51.618;0.336;2022-07-29T07:53:44;101130.26;;;21.38;40.28
63663;BME280;49815;51.618;0.336;2022-07-29T07:56:09;101134.96;;;20.97;40.33
63663;BME280;49815;51.618;0.336;2022-07-29T07:58:34;101144.47;;;19.99;41.86
63663;BME280;49815;51.618;0.336;2022-07-29T08:00:59;101138.61;;;20.97;40.29
63663;BME280;49815;51.618;0.336;2022-07-29T08:03:24;101149.95;;;17.74;45.02
63663;BME280;49815;51.618;0.336;2022-07-29T08:05:50;101147.19;;;20.01;40.66
63663;BME280;49815;51.618;0.336;2022-07-29T08:08:15;101154.03;;;20.20;40.56
63663;BME280;49815;51.618;0.336;2022-07-29T08:10:40;101158.14;;;20.09;40.62
63663;BME280;49815;51.618;0.336;2022-07-29T08:13:08;101154.73;;;20.16;39.70
63663;BME280;49815;51.618;0.336;2022-07-29T08:15:31;101156.22;;;20.22;39.26
63663;BME280;49815;51.618;0.336;2022-07-29T08:17:57;101150.30;;;21.61;36.33
63663;BME280;49815;51.618;0.336;2022-07-29T08:20:22;101142.49;;;22.28;35.69
63663;BME280;49815;51.618;0.336;2022-07-29T08:22:47;101150.92;;;19.94;39.70
63663;BME280;49815;51.618;0.336;2022-07-29T08:25:12;101146.55;;;21.05;36.73
63663;BME280;49815;51.618;0.336;2022-07-29T08:27:37;101151.73;;;17.09;41.52
63663;BME280;49815;51.618;0.336;2022-07-29T08:30:03;101154.60;;;17.53;42.72
63663;BME280;49815;51.618;0.336;2022-07-29T08:32:28;101150.39;;;20.82;38.90
63663;BME280;49815;51.618;0.336;2022-07-29T08:34:53;101143.17;;;23.21;35.38
63663;BME280;49815;51.618;0.336;2022-07-29T08:37:18;101149.82;;;19.94;38.09
63663;BME280;49815;51.618;0.336;2022-07-29T08:39:43;101143.42;;;22.29;34.57
63663;BME280;49815;51.618;0.336;2022-07-29T08:42:08;101141.97;;;22.93;32.01
63663;BME280;49815;51.618;0.336;2022-07-29T08:44:34;101144.28;;;21.69;33.58
63663;BME280;49815;51.618;0.336;2022-07-29T08:46:58;101150.86;;;19.33;36.74
63663;BME280;49815;51.618;0.336;2022-07-29T08:49:25;101140.27;;;21.66;34.23
63663;BME280;49815;51.618;0.336;2022-07-29T08:51:50;101140.89;;;23.01;32.64
63663;BME280;49815;51.618;0.336;2022-07-29T08:54:17;101144.56;;;23.58;31.98
63663;BME280;49815;51.618;0.336;2022-07-29T08:56:39;101147.27;;;24.55;30.34
63663;BME280;49815;51.618;0.336;2022-07-29T08:59:05;101151.48;;;22.46;31.48
63663;BME280;49815;51.618;0.336;2022-07-29T09:01:29;101147.11;;;22.56;30.56
63663;BME280;49815;51.618;0.336;2022-07-29T09:03:56;101146.89;;;23.58;30.71
63663;BME280;49815;51.618;0.336;2022-07-29T09:06:21;101149.26;;;23.92;29.94
63663;BME280;49815;51.618;0.336;2022-07-29T09:08:45;101145.73;;;23.94;29.62
63663;BME280;49815;51.618;0.336;2022-07-29T09:11:10;101145.98;;;23.20;29.85
63663;BME280;49815;51.618;0.336;2022-07-29T09:13:35;101144.87;;;24.17;29.56
63663;BME280;49815;51.618;0.336;2022-07-29T09:16:00;101148.63;;;22.15;31.22
63663;BME280;49815;51.618;0.336;2022-07-29T09:18:34;101161.33;;;20.17;35.38
63663;BME280;49815;51.618;0.336;2022-07-29T09:20:52;101155.97;;;20.99;32.98
63663;BME280;49815;51.618;0.336;2022-07-29T09:23:15;101150.56;;;21.99;33.39
63663;BME280;49815;51.618;0.336;2022-07-29T09:25:41;101151.51;;;21.12;33.85
63663;BME280;49815;51.618;0.336;2022-07-29T09:28:06;101152.58;;;20.76;34.62
63663;BME280;49815;51.618;0.336;2022-07-29T09:30:31;101150.99;;;19.70;36.14
63663;BME280;49815;51.618;0.336;2022-07-29T09:32:57;101137.65;;;23.04;32.85
63663;BME280;49815;51.618;0.336;2022-07-29T09:35:22;101138.35;;;22.42;32.35
63663;BME280;49815;51.618;0.336;2022-07-29T09:37:47;101139.82;;;22.33;32.29
63663;BME280;49815;51.618;0.336;2022-07-29T09:40:13;101139.23;;;23.26;31.27
63663;BME280;49815;51.618;0.336;2022-07-29T09:42:37;101142.63;;;23.45;30.69
63663;BME280;49815;51.618;0.336;2022-07-29T09:45:02;101140.95;;;23.05;30.34
63663;BME280;49815;51.618;0.336;2022-07-29T09:49:54;101145.93;;;21.47;30.58
63663;BME280;49815;51.618;0.336;2022-07-29T09:52:17;101149.43;;;18.20;35.56
63663;BME280;49815;51.618;0.336;2022-07-29T09:54:42;101141.98;;;21.07;33.27
63663;BME280;49815;51.618;0.336;2022-07-29T09:57:08;101137.62;;;23.25;30.40
63663;BME280;49815;51.618;0.336;2022-07-29T09:59:32;101131.94;;;23.44;29.71
63663;BME280;49815;51.618;0.336;2022-07-29T10:01:58;101131.81;;;21.65;30.77
63663;BME280;49815;51.618;0.336;2022-07-29T10:04:22;101127.78;;;23.96;28.37
63663;BME280;49815;51.618;0.336;2022-07-29T10:06:56;101127.79;;;23.30;29.38
63663;BME280;49815;51.618;0.336;2022-07-29T10:09:12;101125.82;;;24.82;27.71
63663;BME280;49815;51.618;0.336;2022-07-29T10:11:38;101125.63;;;22.42;30.49
63663;BME280;49815;51.618;0.336;2022-07-29T10:14:04;101114.98;;;25.24;27.75
63663;BME280;49815;51.618;0.336;2022-07-29T10:16:29;101124.32;;;23.70;28.21
63663;BME280;49815;51.618;0.336;2022-07-29T10:18:53;101127.95;;;23.00;29.08
63663;BME280;49815;51.618;0.336;2022-07-29T10:21:19;101132.05;;;24.08;27.71
63663;BME280;49815;51.618;0.336;2022-07-29T10:23:44;101137.96;;;21.87;29.84
63663;BME280;49815;51.618;0.336;2022-07-29T10:26:10;101147.34;;;19.34;33.40
63663;BME280;49815;51.618;0.336;2022-07-29T10:28:35;101139.59;;;22.32;30.27
63663;BME280;49815;51.618;0.336;2022-07-29T10:31:04;101138.21;;;20.92;30.69
63663;BME280;49815;51.618;0.336;2022-07-29T10:33:38;101132.73;;;21.71;29.24
63663;BME280;49815;51.618;0.336;2022-07-29T10:36:02;101135.48;;;21.23;29.81
63663;BME280;49815;51.618;0.336;2022-07-29T10:38:30;101135.43;;;20.93;31.20
63663;BME280;49815;51.618;0.336;2022-07-29T10:40:49;101148.40;;;18.55;33.33
63663;BME280;49815;51.618;0.336;2022-07-29T10:43:14;101144.78;;;19.24;31.40
63663;BME280;49815;51.618;0.336;2022-07-29T10:45:31;101146.53;;;19.92;31.10
63663;BME280;49815;51.618;0.336;2022-07-29T10:48:04;101127.82;;;22.41;27.88
63663;BME280;49815;51.618;0.336;2022-07-29T10:50:21;101127.68;;;23.47;26.71
63663;BME280;49815;51.618;0.336;2022-07-29T10:52:55;101124.88;;;24.77;26.18
63663;BME280;49815;51.618;0.336;2022-07-29T10:57:36;101122.14;;;23.11;27.15
63663;BME280;49815;51.618;0.336;2022-07-29T11:02:42;101125.42;;;21.24;29.41
63663;BME280;49815;51.618;0.336;2022-07-29T11:05:00;101118.65;;;24.62;26.45
63663;BME280;49815;51.618;0.336;2022-07-29T11:07:16;101120.41;;;22.79;27.69
63663;BME280;49815;51.618;0.336;2022-07-29T11:09:43;101121.01;;;21.24;28.93
63663;BME280;49815;51.618;0.336;2022-07-29T11:17:04;101130.31;;;24.75;26.84
63663;BME280;49815;51.618;0.336;2022-07-29T11:19:22;101133.04;;;22.09;27.55
63663;BME280;49815;51.618;0.336;2022-07-29T11:21:47;101138.61;;;21.83;29.44
63663;BME280;49815;51.618;0.336;2022-07-29T11:24:12;101135.91;;;20.60;29.92
63663;BME280;49815;51.618;0.336;2022-07-29T11:26:37;101137.17;;;21.10;28.94
63663;BME280;49815;51.618;0.336;2022-07-29T11:29:08;101128.66;;;23.08;27.24
63663;BME280;49815;51.618;0.336;2022-07-29T11:31:35;101130.36;;;23.60;26.86
63663;BME280;49815;51.618;0.336;2022-07-29T11:33:52;101133.04;;;23.20;26.62
63663;BME280;49815;51.618;0.336;2022-07-29T11:36:18;101135.85;;;23.46;27.04
63663;BME280;49815;51.618;0.336;2022-07-29T11:38:43;101135.48;;;21.87;28.32
63663;BME280;49815;51.618;0.336;2022-07-29T11:41:21;101129.42;;;20.62;29.31
63663;BME280;49815;51.618;0.336;2022-07-29T11:45:58;101131.25;;;20.17;29.65
63663;BME280;49815;51.618;0.336;2022-07-29T11:48:23;101121.70;;;21.42;28.34
63663;BME280;49815;51.618;0.336;2022-07-29T11:50:48;101124.04;;;21.24;28.68
63663;BME280;49815;51.618;0.336;2022-07-29T11:53:13;101122.93;;;22.62;27.29
63663;BME280;49815;51.618;0.336;2022-07-29T11:55:39;101121.02;;;24.46;26.21
63663;BME280;49815;51.618;0.336;2022-07-29T11:58:03;101111.80;;;25.15;24.90
63663;BME280;49815;51.618;0.336;2022-07-29T12:00:30;101116.56;;;24.11;24.90
63663;BME280;49815;51.618;0.336;2022-07-29T12:02:55;101119.16;;;23.69;25.83
63663;BME280;49815;51.618;0.336;2022-07-29T12:05:18;101128.94;;;20.68;29.67
63663;BME280;49815;51.618;0.336;2022-07-29T12:07:44;101121.57;;;21.03;28.77
63663;BME280;49815;51.618;0.336;2022-07-29T12:10:09;101117.22;;;23.35;27.30
63663;BME280;49815;51.618;0.336;2022-07-29T12:12:34;101118.34;;;22.15;27.71
63663;BME280;49815;51.618;0.336;2022-07-29T12:15:11;101127.83;;;20.58;29.60
63663;BME280;49815;51.618;0.336;2022-07-29T12:17:26;101131.92;;;21.32;28.74
63663;BME280;49815;51.618;0.336;2022-07-29T12:19:49;101127.00;;;23.14;26.40
63663;BME280;49815;51.618;0.336;2022-07-29T12:22:24;101119.42;;;24.86;24.66
63663;BME280;49815;51.618;0.336;2022-07-29T12:24:43;101119.36;;;22.41;26.65
63663;BME280;49815;51.618;0.336;2022-07-29T12:27:06;101116.96;;;24.12;25.15
63663;BME280;49815;51.618;0.336;2022-07-29T12:29:29;101124.79;;;20.79;28.55
63663;BME280;49815;51.618;0.336;2022-07-29T12:31:54;101122.27;;;21.82;28.14
63663;BME280;49815;51.618;0.336;2022-07-29T12:34:23;101114.65;;;23.89;25.77
63663;BME280;49815;51.618;0.336;2022-07-29T12:36:44;101113.89;;;23.82;25.86
63663;BME280;49815;51.618;0.336;2022-07-29T12:39:11;101101.77;;;25.86;24.17
63663;BME280;49815;51.618;0.336;2022-07-29T12:41:36;101104.25;;;27.94;22.96
63663;BME280;49815;51.618;0.336;2022-07-29T12:44:00;101102.26;;;27.21;22.69
63663;BME280;49815;51.618;0.336;2022-07-29T12:46:25;101099.91;;;27.96;21.78
63663;BME280;49815;51.618;0.336;2022-07-29T12:48:52;101101.21;;;25.69;22.59
63663;BME280;49815;51.618;0.336;2022-07-29T12:51:15;101100.31;;;25.39;23.28
63663;BME280;49815;51.618;0.336;2022-07-29T12:53:40;101099.33;;;23.93;24.79